March ARB Airport
KRIV : now visible

Airfield :











YOU CAN JOIN US ON...

 
LOGIN :

Register | Disclaimer

   EN    FR    IT 

 









Legend :    VFR   Marginal VFR   IFR   Intensive IFR   Very Intensive IFR
Visi :
Ceiling :
>= 8 km
>= 3000ft
5 to 8 km
1000 to 3000 ft
1500m to 5 km
500 to 1000 ft
800 to 1500m
200 to 500 ft
< 800m
< 200 ft
Symbols :   Thunderstorms  Fog  Heavy snow  Heavy precipitations  Wind > 20 kt






- Airport Elevation : 1536 ft


KRIV - March ARB

CURRENT METAR :
  • 261658Z 00000KT 10SM CLR 24/13 A2997 RMK AO2A SLP137 T02380133 PNO $

EXPIRED METARs :
  • 261558Z AUTO 00000KT 10SM CLR 20/14 A2997 RMK AO2 SLP139 T02030140 PNO $

TAF TAF KRIV
Valid from the 26 at 12:00 until the 27 at 18:00 UTC


261200Z 2612/2718 VRB05KT 9999 SKC QNH2994INS
BECMG 2618/2619 31009KT 9999 SKC QNH2986INS
TEMPO 2622/2701 31010G15KT
BECMG 2703/2704 VRB04KT 9999 SKC QNH2989INS
BECMG 2715/2716 VRB04KT 9999 SCT300 QNH2991INS TX34/2622Z TN10/2613Z
KZLA FIR / North America



MET'MAP, your aeronautical weather chart ! - Copyright ORBIFLY December 2007 - Disclaimer

ORBIFLY MET'MAP TEAM :

Programming & Development : Alexandra Zaïnal
Concept & original design : Baudouin d'Aumeries
Assistance for programming : Marc-Olivier Méhu
Technical & hardware support : Manuel Goepfert

Contact : metmap@orbifly.com




SOURCES & CREDITS :

   NOAA       Earth
Advisory